South Haven, MN (55382)

9:51 PM CDT on April 26, 2017 (GMT -0500)
Lake John | | Change Station

Elev 1066 ft 45.26 °N, 94.16 °W | Updated 8 seconds ago

Overcast
Overcast
32.4 °F
Feels Like 27 °F
N
6.0
Wind Variable Wind from NNW

Today
High -- | Low -- °F
--% Chance of Precip.
Yesterday
High -- | Low -- °F
Precip. -- in
Pressure 29.63 in
Visibility 3.0 miles
Clouds Mostly Cloudy 1200 ft
Mostly Cloudy 2600 ft
Overcast 3400 ft
Windchill 27 °F
Dew Point 32 °F
Humidity 98%
Rainfall 0.40 in
Snow Depth Not available.
6:12 AM 8:17 PM
New Moon, 1% visible
METAR KMGG 270232Z AUTO 33009KT 3SM BR BKN012 BKN026 OVC034 01/00 A2963 RMK AO2 T00060000
Pressure 29.63 in
Visibility 3.0 miles
Clouds Mostly Cloudy 1200 ft
Mostly Cloudy 2600 ft
Overcast 3400 ft
Windchill 27 °F
Dew Point 32 °F
Humidity 98%
Rainfall 0.40 in
Snow Depth Not available.
6:12 AM 8:17 PM
New Moon, 1% visible
METAR KMGG 270232Z AUTO 33009KT 3SM BR BKN012 BKN026 OVC034 01/00 A2963 RMK AO2 T00060000

Get Severe Weather Alerts

Thanks for signing up!

Be on the lookout for a verification email in your inbox.

You'll start receiving the daily forecast at 8 AM.

×

10-Day Weather Forecast

Almanac

Astronomy

Apr. 26, 2017 Rise Set
Actual Time
Civil Twilight
Nautical Twilight
Astronomical Twilight
Moon
Length of Visible Light
Length of Day
Tomorrow will be .
, % of the Moon is Illuminated

Today's Extremes

State Highs State Lows

Community

WunderPhotos

WunderBlog® & News

Nearby

Air Quality

  Air Quality AQ Index Pollutant
Not available.

Snow Depth

Station Depth Elevation

Earthquake Activity

City Distance Mag. Time & Date
Minimum magnitude displayed is 2.5.

Coastal Water Temperatures

Place Temperature

Stations

Nearby Weather Stations

Station Location Temp. Windchill Dew Point Humidity Wind Precip. Elev Updated Type
                   

Watches & Warnings

There are currently no watches in effect.